ETNL/RLG METAR and TAF weather

Enter ICAO airport designator
Station Type Date Time Source
ETNL METAR 2021/09/28 16:20 UTC NOAA

ETNL 281620Z 02004KT 9999 FEW036 BKN260 14/10 Q1022 BLU+


Station Type Date Time Source
ETNL Decoded METAR 2021/09/28 16:20 UTC NOAA

Laage, Germany (ETNL) 53-55N 012-17E 46M
Sep 28, 2021 - 12:20 PM EDT / 2021.09.28 1620 UTC
Wind: from the NNE (020 degrees) at 5 MPH (4 KT):0
Visibility: greater than 7 mile(s):0
Sky conditions: mostly cloudy
Temperature: 57 F (14 C)
Dew Point: 50 F (10 C)
Relative Humidity: 76%
Pressure (altimeter): 30.18 in. Hg (1022 hPa)
ob: ETNL 281620Z 02004KT 9999 FEW036 BKN260 14/10 Q1022 BLU+
cycle: 16

Station Type Date Time Source
ETNL TAF 2021/04/25 17:35 UTC NOAA

TAF ETNL 251600Z 2517/2606 30005KT 9999 NSW FEW060 BY ETGL

Example: see airport list